createdAt,value
2017-11-25T00:00:56.384Z,0.00
2017-11-25T00:01:56.165Z,0.00
2017-11-25T00:02:56.293Z,0.00
2017-11-25T00:03:56.106Z,0.00
2017-11-25T00:04:56.213Z,0.00
2017-11-25T00:05:56.046Z,0.00
2017-11-25T00:06:56.217Z,0.00
2017-11-25T00:07:56.121Z,0.00
2017-11-25T00:08:55.979Z,0.00
2017-11-25T00:09:56.132Z,0.00
2017-11-25T00:10:55.923Z,0.00
2017-11-25T00:11:57.065Z,0.00
2017-11-25T00:12:55.870Z,0.00
2017-11-25T00:13:55.953Z,0.00
2017-11-25T00:14:55.818Z,0.00
2017-11-25T00:15:55.966Z,0.00
2017-11-25T00:16:55.769Z,0.00
2017-11-25T00:17:55.875Z,0.00
2017-11-25T00:18:55.899Z,0.00
2017-11-25T00:19:55.696Z,0.00
2017-11-25T00:20:55.793Z,0.00
2017-11-25T00:21:55.629Z,0.00
2017-11-25T00:22:55.814Z,0.00
2017-11-25T00:23:55.585Z,0.00
2017-11-25T00:24:55.713Z,0.00
2017-11-25T00:25:55.533Z,0.00
2017-11-25T00:26:55.624Z,0.00
2017-11-25T00:27:55.631Z,0.00
2017-11-25T00:28:55.450Z,0.00
2017-11-25T00:29:55.539Z,0.00
2017-11-25T00:30:55.405Z,0.00
2017-11-25T00:31:56.473Z,0.00
2017-11-25T00:32:55.349Z,0.00
2017-11-25T00:33:55.320Z,0.00
2017-11-25T00:34:55.467Z,0.00
2017-11-25T00:35:55.268Z,0.00
2017-11-25T00:36:55.377Z,0.00
2017-11-25T00:37:55.226Z,0.00
2017-11-25T00:38:55.287Z,0.00
2017-11-25T00:39:55.169Z,0.00
2017-11-25T00:40:55.309Z,0.00
2017-11-25T00:41:55.118Z,0.00
2017-11-25T00:42:55.091Z,0.00
2017-11-25T00:43:55.062Z,0.00
2017-11-25T00:44:55.223Z,0.00
2017-11-25T00:45:55.013Z,0.00
2017-11-25T00:46:55.133Z,0.00
2017-11-25T00:47:54.961Z,0.00
2017-11-25T00:48:55.046Z,0.00
2017-11-25T00:49:54.904Z,0.00
2017-11-25T00:50:55.057Z,0.00
2017-11-25T00:51:54.867Z,0.00
2017-11-25T00:52:54.965Z,0.00
2017-11-25T00:53:54.809Z,0.00
2017-11-25T00:54:54.875Z,0.00
2017-11-25T00:55:54.763Z,0.00
2017-11-25T00:56:54.885Z,0.00
2017-11-25T00:57:54.708Z,0.00
2017-11-25T00:58:54.796Z,0.00
2017-11-25T00:59:54.653Z,0.00
2017-11-25T01:00:54.709Z,0.00
2017-11-25T01:01:54.713Z,0.00
2017-11-25T01:02:54.575Z,0.00
2017-11-25T01:03:54.622Z,0.00
2017-11-25T01:04:54.524Z,0.00
2017-11-25T01:05:54.636Z,0.00
2017-11-25T01:06:54.465Z,0.00
2017-11-25T01:07:54.547Z,0.00
2017-11-25T01:08:54.414Z,0.00
2017-11-25T01:09:54.564Z,0.00
2017-11-25T01:10:54.462Z,0.00
2017-11-25T01:11:54.348Z,0.00
2017-11-25T01:12:54.473Z,0.00
2017-11-25T01:13:54.282Z,0.00
2017-11-25T01:14:54.385Z,0.00
2017-11-25T01:15:54.241Z,0.00
2017-11-25T01:16:54.226Z,0.00
2017-11-25T01:17:54.305Z,0.00
2017-11-25T01:18:54.171Z,0.00
2017-11-25T01:19:54.214Z,0.00
2017-11-25T01:20:54.121Z,0.00
2017-11-25T01:21:55.259Z,0.00
2017-11-25T01:22:54.076Z,0.00
2017-11-25T01:23:54.138Z,0.00
2017-11-25T01:24:54.009Z,0.00
2017-11-25T01:25:54.047Z,0.00
2017-11-25T01:26:53.961Z,0.00
2017-11-25T01:27:54.063Z,0.00
2017-11-25T01:28:53.904Z,0.00
2017-11-25T01:29:53.884Z,0.00
2017-11-25T01:30:53.855Z,0.00
2017-11-25T01:31:54.905Z,0.00
2017-11-25T01:32:53.800Z,0.00
2017-11-25T01:33:53.892Z,0.00
2017-11-25T01:34:53.749Z,0.00
2017-11-25T01:35:53.806Z,0.00
2017-11-25T01:36:53.691Z,0.00
2017-11-25T01:37:53.817Z,0.00
2017-11-25T01:38:53.637Z,0.00
2017-11-25T01:39:53.727Z,0.00
2017-11-25T01:40:53.591Z,0.00
2017-11-25T01:41:54.656Z,0.00
2017-11-25T01:42:53.538Z,0.00
2017-11-25T01:43:53.650Z,0.00
2017-11-25T01:44:53.551Z,0.00
2017-11-25T01:45:53.453Z,0.00
2017-11-25T01:46:53.566Z,0.00
2017-11-25T01:47:53.405Z,0.00
2017-11-25T01:48:53.474Z,0.00
2017-11-25T01:49:53.352Z,0.00
2017-11-25T01:50:53.383Z,0.00
2017-11-25T01:51:53.298Z,0.00
2017-11-25T01:52:53.269Z,0.00
2017-11-25T01:53:53.251Z,0.00
2017-11-25T01:54:53.310Z,0.00
2017-11-25T01:55:53.201Z,0.00
2017-11-25T01:56:53.214Z,0.00
2017-11-25T01:57:53.141Z,0.00
2017-11-25T01:58:53.228Z,0.00
2017-11-25T01:59:53.086Z,0.00
2017-11-25T02:00:53.139Z,0.00
2017-11-25T02:01:53.031Z,0.00
2017-11-25T02:02:53.048Z,0.00
2017-11-25T02:03:52.984Z,0.00
2017-11-25T02:04:53.058Z,0.00
2017-11-25T02:05:52.918Z,0.00
2017-11-25T02:06:52.982Z,0.00
2017-11-25T02:07:52.871Z,0.00
2017-11-25T02:08:52.879Z,0.00
2017-11-25T02:09:52.808Z,0.00
2017-11-25T02:10:52.909Z,0.00
2017-11-25T02:11:52.760Z,0.00
2017-11-25T02:12:52.735Z,0.00
2017-11-25T02:13:52.704Z,0.00
2017-11-25T02:14:52.815Z,0.00
2017-11-25T02:15:52.654Z,0.00
2017-11-25T02:16:52.722Z,0.00
2017-11-25T02:17:52.594Z,0.00
2017-11-25T02:18:52.573Z,0.00
2017-11-25T02:19:52.640Z,0.00
2017-11-25T02:20:52.518Z,0.00
2017-11-25T02:21:52.546Z,0.00
2017-11-25T02:22:52.469Z,0.00
2017-11-25T02:23:52.438Z,0.00
2017-11-25T02:24:52.406Z,0.00
2017-11-25T02:25:52.469Z,0.00
2017-11-25T02:26:52.358Z,0.00
2017-11-25T02:27:52.385Z,0.00
2017-11-25T02:28:52.297Z,0.00
2017-11-25T02:29:52.272Z,0.00
2017-11-25T02:30:52.256Z,0.00
2017-11-25T02:31:52.304Z,0.00
2017-11-25T02:32:52.190Z,0.00
2017-11-25T02:33:52.214Z,0.00
2017-11-25T02:34:52.144Z,0.00
2017-11-25T02:35:52.109Z,0.00
2017-11-25T02:36:52.092Z,0.00
2017-11-25T02:37:52.134Z,0.00
2017-11-25T02:38:52.043Z,0.00
2017-11-25T02:39:52.148Z,0.00
2017-11-25T02:40:51.986Z,0.00
2017-11-25T02:41:51.954Z,0.00
2017-11-25T02:42:52.070Z,0.00
2017-11-25T02:43:51.899Z,0.00
2017-11-25T02:44:52.090Z,0.00
2017-11-25T02:45:51.843Z,0.00
2017-11-25T02:46:51.829Z,0.00
2017-11-25T02:47:51.791Z,0.00
2017-11-25T02:48:51.897Z,0.00
2017-11-25T02:49:51.739Z,0.00
2017-11-25T02:50:51.920Z,0.00
2017-11-25T02:51:51.682Z,0.00
2017-11-25T02:52:51.819Z,0.00
2017-11-25T02:53:51.633Z,0.00
2017-11-25T02:54:51.730Z,0.00
2017-11-25T02:55:51.573Z,0.00
2017-11-25T02:56:51.738Z,0.00
2017-11-25T02:57:51.526Z,0.00
2017-11-25T02:58:51.504Z,0.00
2017-11-25T02:59:51.660Z,0.00
2017-11-25T03:00:51.439Z,0.00
2017-11-25T03:01:52.592Z,0.00
2017-11-25T03:02:51.395Z,0.00
2017-11-25T03:03:51.478Z,0.00
2017-11-25T03:04:51.481Z,0.00
2017-11-25T03:05:51.314Z,0.00
2017-11-25T03:06:51.391Z,0.00
2017-11-25T03:07:51.268Z,0.00
2017-11-25T03:08:51.403Z,0.00
2017-11-25T03:09:51.206Z,0.00
2017-11-25T03:10:51.180Z,0.00
2017-11-25T03:11:51.322Z,0.00
2017-11-25T03:12:51.129Z,0.00
2017-11-25T03:13:51.228Z,0.00
2017-11-25T03:14:51.068Z,0.00
2017-11-25T03:15:51.240Z,0.00
2017-11-25T03:16:51.022Z,0.00
2017-11-25T03:17:51.153Z,0.00
2017-11-25T03:18:50.966Z,0.00
2017-11-25T03:19:51.060Z,0.00
2017-11-25T03:20:50.913Z,0.00
2017-11-25T03:21:50.884Z,0.00
2017-11-25T03:22:50.859Z,0.00
2017-11-25T03:23:50.981Z,0.00
2017-11-25T03:24:50.806Z,0.00
2017-11-25T03:25:50.893Z,0.00
2017-11-25T03:26:50.748Z,0.00
2017-11-25T03:27:50.720Z,0.00
2017-11-25T03:28:50.692Z,0.00
2017-11-25T03:29:50.816Z,0.00
2017-11-25T03:30:50.646Z,0.00
2017-11-25T03:31:51.751Z,0.00
2017-11-25T03:32:50.600Z,0.00
2017-11-25T03:33:50.564Z,0.00
2017-11-25T03:34:50.539Z,0.00
2017-11-25T03:35:50.649Z,0.00
2017-11-25T03:36:50.493Z,0.00
2017-11-25T03:37:50.560Z,0.00
2017-11-25T03:38:50.427Z,0.00
2017-11-25T03:39:50.416Z,0.00
2017-11-25T03:40:50.373Z,0.00
2017-11-25T03:41:51.508Z,0.00
2017-11-25T03:42:50.325Z,0.00
2017-11-25T03:43:50.393Z,0.00
2017-11-25T03:44:50.272Z,0.00
2017-11-25T03:45:50.406Z,0.00
2017-11-25T03:46:50.210Z,0.00
2017-11-25T03:47:50.314Z,0.00
2017-11-25T03:48:50.162Z,0.00
2017-11-25T03:49:50.227Z,0.00
2017-11-25T03:50:50.111Z,0.00
2017-11-25T03:51:51.261Z,0.00
2017-11-25T03:52:50.061Z,0.00
2017-11-25T03:53:50.147Z,0.00
2017-11-25T03:54:50.003Z,0.00
2017-11-25T03:55:50.056Z,0.00
2017-11-25T03:56:49.945Z,0.00
2017-11-25T03:57:50.068Z,0.00
2017-11-25T03:58:49.896Z,0.00
2017-11-25T03:59:49.981Z,0.00
2017-11-25T04:00:49.848Z,0.00
2017-11-25T04:01:50.913Z,0.00
2017-11-25T04:02:49.892Z,0.00
2017-11-25T04:03:49.760Z,0.00
2017-11-25T04:04:49.805Z,0.00
2017-11-25T04:05:49.710Z,0.00
2017-11-25T04:06:49.819Z,0.00
2017-11-25T04:07:49.652Z,0.00
2017-11-25T04:08:49.621Z,0.00
2017-11-25T04:09:49.732Z,0.00
2017-11-25T04:10:49.566Z,0.00
2017-11-25T04:11:49.641Z,0.00
2017-11-25T04:12:49.521Z,0.00
2017-11-25T04:13:49.658Z,0.00
2017-11-25T04:14:49.467Z,0.00
2017-11-25T04:15:49.563Z,0.00
2017-11-25T04:16:49.406Z,0.00
2017-11-25T04:17:49.475Z,0.00
2017-11-25T04:18:49.358Z,0.00
2017-11-25T04:19:49.325Z,0.00
2017-11-25T04:20:49.305Z,0.00
2017-11-25T04:21:49.411Z,0.00
2017-11-25T04:22:49.251Z,0.00
2017-11-25T04:23:49.305Z,0.00
2017-11-25T04:24:49.197Z,0.00
2017-11-25T04:25:49.170Z,0.00
2017-11-25T04:26:49.228Z,0.00
2017-11-25T04:27:49.116Z,0.00
2017-11-25T04:28:49.235Z,0.00
2017-11-25T04:29:49.069Z,0.00
2017-11-25T04:30:49.035Z,0.00
2017-11-25T04:31:49.001Z,0.00
2017-11-25T04:32:49.090Z,0.00
2017-11-25T04:33:48.956Z,0.00
2017-11-25T04:34:49.066Z,0.00
2017-11-25T04:35:48.896Z,0.00
2017-11-25T04:36:48.977Z,0.00
2017-11-25T04:37:48.983Z,0.00
2017-11-25T04:38:48.818Z,0.00
2017-11-25T04:39:48.889Z,0.00
2017-11-25T04:40:48.772Z,0.00
2017-11-25T04:41:49.835Z,0.00
2017-11-25T04:42:48.707Z,0.00
2017-11-25T04:43:48.681Z,0.00
2017-11-25T04:44:48.722Z,0.00
2017-11-25T04:45:48.628Z,0.00
2017-11-25T04:46:48.730Z,0.00
2017-11-25T04:47:48.573Z,0.00
2017-11-25T04:48:48.637Z,0.00
2017-11-25T04:49:48.521Z,0.00
2017-11-25T04:50:48.553Z,0.00
2017-11-25T04:51:48.467Z,0.00
2017-11-25T04:52:48.563Z,0.00
2017-11-25T04:53:48.415Z,0.00
2017-11-25T04:54:48.395Z,0.00
2017-11-25T04:55:48.362Z,0.00
2017-11-25T04:56:48.486Z,0.00
2017-11-25T04:57:48.307Z,0.00
2017-11-25T04:58:48.398Z,0.00
2017-11-25T04:59:48.263Z,0.00
2017-11-25T05:00:48.311Z,0.00
2017-11-25T05:01:48.203Z,0.00
2017-11-25T05:02:48.320Z,0.00
2017-11-25T05:03:48.155Z,0.00
2017-11-25T05:04:48.226Z,0.00
2017-11-25T05:05:48.092Z,0.00
2017-11-25T05:06:48.079Z,0.00
2017-11-25T05:07:48.049Z,0.00
2017-11-25T05:08:48.151Z,0.00
2017-11-25T05:09:47.989Z,0.00
2017-11-25T05:10:48.061Z,0.00
2017-11-25T05:11:47.941Z,0.00
2017-11-25T05:12:47.968Z,0.00
2017-11-25T05:13:47.880Z,0.00
2017-11-25T05:14:47.983Z,0.00
2017-11-25T05:15:47.826Z,0.00
2017-11-25T05:16:47.808Z,0.00
2017-11-25T05:17:47.773Z,0.00
2017-11-25T05:18:47.802Z,0.00
2017-11-25T05:19:47.725Z,0.00
2017-11-25T05:20:47.820Z,0.00
2017-11-25T05:21:47.670Z,0.00
2017-11-25T05:22:47.728Z,0.00
2017-11-25T05:23:47.616Z,0.00
2017-11-25T05:24:47.597Z,0.00
2017-11-25T05:25:47.639Z,0.00
2017-11-25T05:26:47.541Z,0.00
2017-11-25T05:27:47.552Z,0.00
2017-11-25T05:28:47.486Z,0.00
2017-11-25T05:29:47.453Z,0.00
2017-11-25T05:30:47.433Z,0.00
2017-11-25T05:31:47.472Z,0.00
2017-11-25T05:32:47.372Z,0.00
2017-11-25T05:33:47.382Z,0.00
2017-11-25T05:34:47.318Z,0.00
2017-11-25T05:35:47.301Z,0.00
2017-11-25T05:36:47.265Z,0.00
2017-11-25T05:37:47.318Z,0.00
2017-11-25T05:38:47.217Z,0.00
2017-11-25T05:39:47.214Z,0.00
2017-11-25T05:40:47.162Z,0.00
2017-11-25T05:41:47.139Z,0.00
2017-11-25T05:42:47.229Z,0.00
2017-11-25T05:43:47.090Z,0.00
2017-11-25T05:44:47.244Z,0.00
2017-11-25T05:45:47.036Z,0.00
2017-11-25T05:46:47.153Z,0.00
2017-11-25T05:47:46.980Z,0.00
2017-11-25T05:48:47.165Z,0.00
2017-11-25T05:49:46.920Z,0.00
2017-11-25T05:50:47.079Z,0.00
2017-11-25T05:51:46.878Z,0.00
2017-11-25T05:52:46.840Z,0.00
2017-11-25T05:53:46.815Z,0.00
2017-11-25T05:54:47.003Z,0.00
2017-11-25T05:55:46.768Z,0.00
2017-11-25T05:56:46.905Z,0.00
2017-11-25T05:57:46.707Z,0.00
2017-11-25T05:58:46.823Z,0.00
2017-11-25T05:59:46.659Z,0.00
2017-11-25T06:00:46.829Z,0.00
2017-11-25T06:01:46.604Z,0.00
2017-11-25T06:02:46.749Z,0.00
2017-11-25T06:03:46.548Z,0.00
2017-11-25T06:04:46.535Z,0.00
2017-11-25T06:05:46.495Z,0.00
2017-11-25T06:06:46.661Z,0.00
2017-11-25T06:07:46.443Z,0.00
2017-11-25T06:08:46.573Z,0.00
2017-11-25T06:09:46.387Z,0.00
2017-11-25T06:10:46.481Z,0.00
2017-11-25T06:11:46.342Z,0.00
2017-11-25T06:12:46.491Z,0.00
2017-11-25T06:13:46.289Z,0.00
2017-11-25T06:14:46.260Z,0.00
2017-11-25T06:15:46.407Z,0.00
2017-11-25T06:16:46.200Z,0.00
2017-11-25T06:17:46.320Z,0.00
2017-11-25T06:18:46.177Z,0.00
2017-11-25T06:19:46.134Z,0.00
2017-11-25T06:20:46.236Z,0.00
2017-11-25T06:21:46.065Z,0.00
2017-11-25T06:22:46.146Z,0.00
2017-11-25T06:23:46.013Z,0.00
2017-11-25T06:24:45.992Z,0.00
2017-11-25T06:25:45.962Z,0.00
2017-11-25T06:26:45.963Z,0.00
2017-11-25T06:27:45.912Z,0.00
2017-11-25T06:28:45.893Z,0.00
2017-11-25T06:29:45.885Z,0.00
2017-11-25T06:30:45.825Z,0.00
2017-11-25T06:31:46.820Z,0.00
2017-11-25T06:32:45.772Z,0.00
2017-11-25T06:33:45.839Z,0.00
2017-11-25T06:34:45.724Z,0.00
2017-11-25T06:35:45.820Z,0.00
2017-11-25T06:36:45.666Z,0.00
2017-11-25T06:37:45.830Z,0.00
2017-11-25T06:38:45.620Z,0.00
2017-11-25T06:39:45.634Z,0.00
2017-11-25T06:40:45.557Z,0.00
2017-11-25T06:41:45.649Z,0.00
2017-11-25T06:42:45.510Z,0.00
2017-11-25T06:43:45.658Z,0.00
2017-11-25T06:44:45.461Z,0.00
2017-11-25T06:45:45.430Z,0.00
2017-11-25T06:46:45.401Z,0.00
2017-11-25T06:47:45.482Z,0.00
2017-11-25T06:48:45.351Z,0.00
2017-11-25T06:49:45.493Z,0.00
2017-11-25T06:50:45.295Z,0.00
2017-11-25T06:51:46.428Z,0.00
2017-11-25T06:52:45.244Z,0.00
2017-11-25T06:53:45.313Z,0.00
2017-11-25T06:54:45.184Z,0.00
2017-11-25T06:55:45.326Z,0.00
2017-11-25T06:56:45.136Z,0.00
2017-11-25T06:57:46.260Z,0.00
2017-11-25T06:58:45.081Z,0.00
2017-11-25T06:59:45.143Z,0.00
2017-11-25T07:00:45.021Z,0.00
2017-11-25T07:01:46.081Z,0.00
2017-11-25T07:02:44.974Z,0.00
2017-11-25T07:03:45.067Z,0.00
2017-11-25T07:04:45.076Z,0.00
2017-11-25T07:05:44.895Z,0.00
2017-11-25T07:06:44.919Z,0.00
2017-11-25T07:07:44.840Z,0.00
2017-11-25T07:08:44.832Z,0.00
2017-11-25T07:09:44.785Z,0.00
2017-11-25T07:10:44.843Z,0.00
2017-11-25T07:11:44.729Z,0.00
2017-11-25T07:12:44.757Z,0.00
2017-11-25T07:13:44.671Z,0.00
2017-11-25T07:14:44.669Z,0.00
2017-11-25T07:15:44.633Z,0.00
2017-11-25T07:16:44.599Z,0.00
2017-11-25T07:17:44.583Z,0.00
2017-11-25T07:18:44.537Z,0.00
2017-11-25T07:19:44.600Z,0.00
2017-11-25T07:20:44.492Z,0.00
2017-11-25T07:21:44.457Z,5.63
2017-11-25T07:22:44.439Z,5.63
2017-11-25T07:23:44.530Z,5.63
2017-11-25T07:24:44.385Z,5.63
2017-11-25T07:25:44.433Z,5.63
2017-11-25T07:26:44.324Z,5.63
2017-11-25T07:27:44.296Z,5.63
2017-11-25T07:28:44.274Z,5.63
2017-11-25T07:29:44.356Z,5.63
2017-11-25T07:30:44.217Z,5.63
2017-11-25T07:31:45.295Z,5.63
2017-11-25T07:32:44.163Z,5.63
2017-11-25T07:33:44.143Z,5.63
2017-11-25T07:34:44.186Z,5.63
2017-11-25T07:35:44.089Z,5.63
2017-11-25T07:36:44.096Z,5.63
2017-11-25T07:37:44.035Z,5.63
2017-11-25T07:38:44.113Z,5.63
2017-11-25T07:39:43.977Z,5.63
2017-11-25T07:40:44.023Z,5.63
2017-11-25T07:41:43.929Z,5.63
2017-11-25T07:42:43.936Z,11.25
2017-11-25T07:43:43.876Z,11.25
2017-11-25T07:44:43.847Z,11.25
2017-11-25T07:45:43.818Z,11.25
2017-11-25T07:46:43.860Z,11.25
2017-11-25T07:47:43.769Z,11.25
2017-11-25T07:48:43.750Z,11.25
2017-11-25T07:49:43.715Z,5.63
2017-11-25T07:50:43.695Z,5.63
2017-11-25T07:51:43.662Z,5.63
2017-11-25T07:52:43.643Z,11.25
2017-11-25T07:53:43.606Z,11.25
2017-11-25T07:54:43.580Z,5.63
2017-11-25T07:55:43.561Z,5.63
2017-11-25T07:56:43.549Z,11.25
2017-11-25T07:57:43.508Z,11.25
2017-11-25T07:58:43.527Z,11.25
2017-11-25T07:59:43.443Z,11.25
2017-11-25T08:00:43.476Z,11.25
2017-11-25T08:01:43.389Z,16.88
2017-11-25T08:02:43.380Z,16.88
2017-11-25T08:03:43.341Z,16.88
2017-11-25T08:04:43.394Z,16.88
2017-11-25T08:05:43.279Z,16.88
2017-11-25T08:06:43.255Z,16.88
2017-11-25T08:07:43.235Z,22.50
2017-11-25T08:08:43.319Z,22.50
2017-11-25T08:09:43.162Z,22.50
2017-11-25T08:10:43.221Z,28.13
2017-11-25T08:11:43.120Z,28.13
2017-11-25T08:12:43.141Z,28.13
2017-11-25T08:13:43.067Z,28.13
2017-11-25T08:14:43.140Z,28.13
2017-11-25T08:15:42.998Z,28.13
2017-11-25T08:16:43.050Z,33.75
2017-11-25T08:17:42.944Z,33.75
2017-11-25T08:18:42.958Z,39.38
2017-11-25T08:19:42.899Z,39.38
2017-11-25T08:20:42.973Z,45.00
2017-11-25T08:21:42.846Z,45.00
2017-11-25T08:22:42.880Z,45.00
2017-11-25T08:23:42.794Z,45.00
2017-11-25T08:24:42.792Z,45.00
2017-11-25T08:25:42.733Z,39.38
2017-11-25T08:26:42.718Z,39.38
2017-11-25T08:27:42.680Z,33.75
2017-11-25T08:28:42.653Z,33.75
2017-11-25T08:29:42.636Z,33.75
2017-11-25T08:30:42.622Z,33.75
2017-11-25T08:31:42.579Z,33.75
2017-11-25T08:32:42.553Z,33.75
2017-11-25T08:33:42.522Z,33.75
2017-11-25T08:34:42.489Z,33.75
2017-11-25T08:35:42.470Z,33.75
2017-11-25T08:36:42.437Z,39.38
2017-11-25T08:37:42.417Z,39.38
2017-11-25T08:38:42.382Z,45.00
2017-11-25T08:39:42.361Z,45.00
2017-11-25T08:40:42.330Z,45.00
2017-11-25T08:41:42.310Z,45.00
2017-11-25T08:42:42.275Z,45.00
2017-11-25T08:43:42.254Z,50.63
2017-11-25T08:44:42.228Z,50.63
2017-11-25T08:45:42.201Z,50.63
2017-11-25T08:46:42.174Z,50.63
2017-11-25T08:47:42.147Z,50.63
2017-11-25T08:48:42.119Z,50.63
2017-11-25T08:49:42.084Z,56.25
2017-11-25T08:50:42.069Z,56.25
2017-11-25T08:51:42.040Z,61.88
2017-11-25T08:52:42.013Z,61.88
2017-11-25T08:53:41.980Z,56.25
2017-11-25T08:54:41.961Z,56.25
2017-11-25T08:55:41.931Z,56.25
2017-11-25T08:56:41.905Z,56.25
2017-11-25T08:57:41.869Z,50.63
2017-11-25T08:58:41.866Z,56.25
2017-11-25T08:59:41.819Z,56.25
2017-11-25T09:00:41.796Z,56.25
2017-11-25T09:01:41.773Z,56.25
2017-11-25T09:02:41.744Z,56.25
2017-11-25T09:03:41.800Z,56.25
2017-11-25T09:04:41.682Z,50.63
2017-11-25T09:05:41.659Z,50.63
2017-11-25T09:06:41.628Z,56.25
2017-11-25T09:07:41.630Z,56.25
2017-11-25T09:08:41.585Z,61.88
2017-11-25T09:09:41.548Z,67.50
2017-11-25T09:10:41.518Z,73.13
2017-11-25T09:11:41.517Z,78.75
2017-11-25T09:12:41.475Z,90.00
2017-11-25T09:13:41.444Z,90.00
2017-11-25T09:14:41.416Z,95.63
2017-11-25T09:15:41.389Z,95.63
2017-11-25T09:16:41.369Z,95.63
2017-11-25T09:17:41.337Z,90.00
2017-11-25T09:18:41.312Z,90.00
2017-11-25T09:19:41.283Z,95.63
2017-11-25T09:20:41.255Z,101.25
2017-11-25T09:21:41.228Z,106.88
2017-11-25T09:22:41.201Z,112.50
2017-11-25T09:23:41.175Z,118.13
2017-11-25T09:24:41.146Z,129.38
2017-11-25T09:25:41.120Z,135.00
2017-11-25T09:26:41.093Z,135.00
2017-11-25T09:27:41.064Z,135.00
2017-11-25T09:28:41.036Z,129.38
2017-11-25T09:29:41.011Z,123.75
2017-11-25T09:30:40.985Z,106.88
2017-11-25T09:31:40.954Z,95.63
2017-11-25T09:32:40.929Z,84.38
2017-11-25T09:33:40.907Z,78.75
2017-11-25T09:34:40.878Z,73.13
2017-11-25T09:35:40.862Z,67.50
2017-11-25T09:36:40.821Z,61.88
2017-11-25T09:37:40.798Z,61.88
2017-11-25T09:38:40.767Z,61.88
2017-11-25T09:39:40.745Z,61.88
2017-11-25T09:40:40.718Z,61.88
2017-11-25T09:41:40.684Z,61.88
2017-11-25T09:42:40.668Z,56.25
2017-11-25T09:43:40.636Z,56.25
2017-11-25T09:44:40.609Z,50.63
2017-11-25T09:45:40.579Z,50.63
2017-11-25T09:46:40.736Z,39.38
2017-11-25T09:47:40.532Z,33.75
2017-11-25T09:48:40.505Z,39.38
2017-11-25T09:49:40.485Z,39.38
2017-11-25T09:50:40.562Z,39.38
2017-11-25T09:51:40.435Z,45.00
2017-11-25T09:52:40.393Z,45.00
2017-11-25T09:53:40.375Z,50.63
2017-11-25T09:54:40.350Z,56.25
2017-11-25T09:55:40.316Z,61.88
2017-11-25T09:56:40.291Z,67.50
2017-11-25T09:57:40.264Z,78.75
2017-11-25T09:58:40.238Z,90.00
2017-11-25T09:59:40.208Z,95.63
2017-11-25T10:00:40.173Z,101.25
2017-11-25T10:01:40.156Z,101.25
2017-11-25T10:02:40.126Z,101.25
2017-11-25T10:03:40.145Z,101.25
2017-11-25T10:04:40.069Z,101.25
2017-11-25T10:05:40.047Z,106.88
2017-11-25T10:06:40.015Z,106.88
2017-11-25T10:07:40.019Z,101.25
2017-11-25T10:08:39.965Z,101.25
2017-11-25T10:09:39.946Z,106.88
2017-11-25T10:10:39.917Z,112.50
2017-11-25T10:11:39.883Z,123.75
2017-11-25T10:12:39.858Z,129.38
2017-11-25T10:13:39.851Z,123.75
2017-11-25T10:14:39.806Z,123.75
2017-11-25T10:15:39.771Z,129.38
2017-11-25T10:16:39.750Z,123.75
2017-11-25T10:17:39.757Z,123.75
2017-11-25T10:18:39.697Z,123.75
2017-11-25T10:19:39.667Z,123.75
2017-11-25T10:20:39.664Z,123.75
2017-11-25T10:21:39.612Z,123.75
2017-11-25T10:22:39.599Z,118.13
2017-11-25T10:23:39.566Z,118.13
2017-11-25T10:24:39.537Z,123.75
2017-11-25T10:25:39.502Z,129.38
2017-11-25T10:26:39.488Z,146.25
2017-11-25T10:27:39.457Z,157.50
2017-11-25T10:28:39.462Z,168.75
2017-11-25T10:29:39.403Z,174.38
2017-11-25T10:30:39.386Z,180.00
2017-11-25T10:31:39.342Z,180.00
2017-11-25T10:32:39.322Z,180.00
2017-11-25T10:33:39.286Z,174.38
2017-11-25T10:34:39.267Z,168.75
2017-11-25T10:35:39.234Z,163.13
2017-11-25T10:36:39.213Z,157.50
2017-11-25T10:37:39.186Z,151.88
2017-11-25T10:38:39.166Z,151.88
2017-11-25T10:39:39.127Z,151.88
2017-11-25T10:40:39.104Z,151.88
2017-11-25T10:41:39.132Z,146.25
2017-11-25T10:42:39.049Z,146.25
2017-11-25T10:43:39.143Z,146.25
2017-11-25T10:44:38.993Z,146.25
2017-11-25T10:45:39.052Z,151.88
2017-11-25T10:46:39.041Z,157.50
2017-11-25T10:47:38.916Z,163.13
2017-11-25T10:48:38.880Z,163.13
2017-11-25T10:49:38.978Z,163.13
2017-11-25T10:50:38.853Z,163.13
2017-11-25T10:51:38.884Z,168.75
2017-11-25T10:52:38.777Z,168.75
2017-11-25T10:53:38.902Z,174.38
2017-11-25T10:54:38.735Z,174.38
2017-11-25T10:55:38.804Z,174.38
2017-11-25T10:56:38.670Z,168.75
2017-11-25T10:57:38.717Z,157.50
2017-11-25T10:58:38.620Z,157.50
2017-11-25T10:59:38.734Z,157.50
2017-11-25T11:00:38.564Z,168.75
2017-11-25T11:01:38.639Z,168.75
2017-11-25T11:02:38.518Z,174.38
2017-11-25T11:03:38.548Z,180.00
2017-11-25T11:04:38.459Z,180.00
2017-11-25T11:05:38.561Z,180.00
2017-11-25T11:06:38.403Z,180.00
2017-11-25T11:07:38.471Z,185.63
2017-11-25T11:08:38.348Z,191.25
2017-11-25T11:09:38.380Z,202.50
2017-11-25T11:10:38.296Z,208.13
2017-11-25T11:11:38.393Z,213.75
2017-11-25T11:12:38.245Z,219.38
2017-11-25T11:13:38.303Z,225.00
2017-11-25T11:14:38.188Z,230.63
2017-11-25T11:15:38.214Z,236.25
2017-11-25T11:16:38.134Z,236.25
2017-11-25T11:17:38.226Z,241.88
2017-11-25T11:18:38.081Z,247.50
2017-11-25T11:19:38.136Z,253.13
2017-11-25T11:20:38.033Z,253.13
2017-11-25T11:21:38.046Z,258.75
2017-11-25T11:22:38.186Z,258.75
2017-11-25T11:23:37.958Z,258.75
2017-11-25T11:24:37.968Z,258.75
2017-11-25T11:25:37.895Z,258.75
2017-11-25T11:26:37.974Z,264.38
2017-11-25T11:27:37.860Z,270.00
2017-11-25T11:28:37.845Z,275.63
2017-11-25T11:29:37.887Z,286.88
2017-11-25T11:30:37.764Z,292.50
2017-11-25T11:31:37.740Z,298.13
2017-11-25T11:32:37.707Z,309.38
2017-11-25T11:33:38.735Z,315.00
2017-11-25T11:34:37.660Z,320.63
2017-11-25T11:35:37.718Z,320.63
2017-11-25T11:36:37.648Z,315.00
2017-11-25T11:37:37.632Z,309.38
2017-11-25T11:38:37.550Z,298.13
2017-11-25T11:39:37.658Z,286.88
2017-11-25T11:40:37.503Z,281.25
2017-11-25T11:41:37.570Z,264.38
2017-11-25T11:42:37.442Z,258.75
2017-11-25T11:43:37.584Z,253.13
2017-11-25T11:44:37.439Z,253.13
2017-11-25T11:45:37.496Z,247.50
2017-11-25T11:46:37.344Z,241.88
2017-11-25T11:47:37.387Z,241.88
2017-11-25T11:48:37.294Z,241.88
2017-11-25T11:49:37.263Z,241.88
2017-11-25T11:50:37.239Z,236.25
2017-11-25T11:51:38.338Z,230.63
2017-11-25T11:52:37.254Z,230.63
2017-11-25T11:53:37.430Z,230.63
2017-11-25T11:54:37.237Z,230.63
2017-11-25T11:55:37.158Z,230.63
2017-11-25T11:56:37.124Z,225.00
2017-11-25T11:57:37.143Z,219.38
2017-11-25T11:58:37.026Z,219.38
2017-11-25T11:59:37.005Z,219.38
2017-11-25T12:00:36.976Z,219.38
2017-11-25T12:01:37.071Z,219.38
2017-11-25T12:02:36.914Z,225.00
2017-11-25T12:03:36.977Z,225.00
2017-11-25T12:04:36.862Z,225.00
2017-11-25T12:05:36.884Z,225.00
2017-11-25T12:06:36.813Z,219.38
2017-11-25T12:07:36.895Z,213.75
2017-11-25T12:08:36.761Z,208.13
2017-11-25T12:09:36.805Z,191.25
2017-11-25T12:10:36.704Z,180.00
2017-11-25T12:11:36.719Z,163.13
2017-11-25T12:12:36.723Z,157.50
2017-11-25T12:13:36.627Z,146.25
2017-11-25T12:14:36.635Z,140.63
2017-11-25T12:15:36.574Z,140.63
2017-11-25T12:16:36.641Z,140.63
2017-11-25T12:17:36.550Z,146.25
2017-11-25T12:18:36.498Z,146.25
2017-11-25T12:19:36.562Z,151.88
2017-11-25T12:20:36.436Z,151.88
2017-11-25T12:21:36.472Z,157.50
2017-11-25T12:22:36.383Z,163.13
2017-11-25T12:23:36.381Z,168.75
2017-11-25T12:24:36.337Z,174.38
2017-11-25T12:25:36.393Z,180.00
2017-11-25T12:26:36.286Z,180.00
2017-11-25T12:27:36.304Z,180.00
2017-11-25T12:28:36.227Z,185.63
2017-11-25T12:29:36.213Z,196.88
2017-11-25T12:30:36.174Z,208.13
2017-11-25T12:31:36.220Z,225.00
2017-11-25T12:32:36.120Z,225.00
2017-11-25T12:33:36.130Z,230.63
2017-11-25T12:34:36.076Z,230.63
2017-11-25T12:35:36.146Z,230.63
2017-11-25T12:36:36.011Z,230.63
2017-11-25T12:37:36.056Z,230.63
2017-11-25T12:38:35.961Z,225.00
2017-11-25T12:39:35.967Z,225.00
2017-11-25T12:40:35.909Z,225.00
2017-11-25T12:41:35.897Z,225.00
2017-11-25T12:42:35.854Z,225.00
2017-11-25T12:43:35.887Z,230.63
2017-11-25T12:44:35.800Z,230.63
2017-11-25T12:45:35.795Z,236.25
2017-11-25T12:46:35.746Z,241.88
2017-11-25T12:47:35.721Z,247.50
2017-11-25T12:48:35.697Z,241.88
2017-11-25T12:49:35.726Z,241.88
2017-11-25T12:50:35.637Z,247.50
2017-11-25T12:51:35.629Z,247.50
2017-11-25T12:52:35.591Z,241.88
2017-11-25T12:53:35.645Z,230.63
2017-11-25T12:54:35.534Z,213.75
2017-11-25T12:55:35.554Z,202.50
2017-11-25T12:56:35.497Z,180.00
2017-11-25T12:57:35.468Z,157.50
2017-11-25T12:58:35.473Z,140.63
2017-11-25T12:59:35.405Z,118.13
2017-11-25T13:00:35.492Z,112.50
2017-11-25T13:01:35.348Z,95.63